Crossville, Illinois
Current Conditions -  °F | °C
As of 4:55 AM on Friday 31 Oct 2014 (Local Time) from KCUL Reporting Station
Overcast Overcast  
Wind Chill: 48°   Ceiling: 3800
Heat Index: 49°   Visibility: 7mi
Dew Point: 48°   Wind: 5mph
Humidity: 97%   Direction: 360°N
Pressure: 30.03"   Gusts: NA
Location:  38.16°N, 88.07°W
Report Text: KCUL 310955Z AUTO 36004KT 7SM OVC038 10/09 A3003 RMK AO2 T00960091
Loading
Personal Weather Stations






























Interactive Weather Map
Tropical Storm Tracking
New forecast layout! Learn more

10-Day Weather Forecast

Advertisements
Track Severe Weather on mobile